Time;durP1;ratioP1;P1;durP2;ratioP2;P2;SDS_P1;SDS_P2;PMS_P1;PMS_P2;Temp;Humidity;BMP_temperature;BMP_pressure;BME280_temperature;BME280_humidity;BME280_pressure;Samples;Min_cycle;Max_cycle;Signal;HPM_P1;HPM_P2
2022/10/16 00:02:01;;;;;;;1.98;1.77;;;20.20;50.60;;;;;;5133389;28;20120;-10
2022/10/16 00:04:26;;;;;;;1.80;1.70;;;20.20;50.60;;;;;;5133388;28;20055;-10
2022/10/16 00:06:52;;;;;;;1.80;1.60;;;20.20;50.60;;;;;;5133442;28;20495;-10
2022/10/16 00:09:17;;;;;;;1.50;1.40;;;20.20;50.70;;;;;;5133936;28;20047;-10
2022/10/16 00:11:43;;;;;;;1.98;1.58;;;20.20;50.60;;;;;;5133508;28;20054;-10
2022/10/16 00:14:14;;;;;;;1.63;1.50;;;20.20;50.60;;;;;;5133980;28;20087;-10
2022/10/16 00:16:39;;;;;;;1.30;1.20;;;20.20;50.60;;;;;;5133441;28;20062;-10
2022/10/16 00:19:05;;;;;;;1.50;1.40;;;20.30;50.60;;;;;;5133431;28;20505;-10
2022/10/16 00:21:31;;;;;;;1.73;1.60;;;20.20;50.60;;;;;;5133267;28;20054;-10
2022/10/16 00:24:08;;;;;;;1.50;1.40;;;20.20;50.60;;;;;;5133285;28;20052;-10
2022/10/16 00:26:34;;;;;;;2.15;1.95;;;20.20;50.70;;;;;;5133880;28;20062;-10
2022/10/16 00:29:00;;;;;;;1.83;1.63;;;20.20;50.70;;;;;;5114706;28;20085;-10
2022/10/16 00:31:26;;;;;;;1.60;1.40;;;20.20;50.60;;;;;;5133603;28;20086;-10
2022/10/16 00:33:52;;;;;;;1.70;1.60;;;20.20;50.60;;;;;;5133582;28;20062;-10
2022/10/16 00:36:21;;;;;;;1.70;1.60;;;20.20;50.70;;;;;;5133052;28;20043;-10
2022/10/16 00:38:52;;;;;;;1.70;1.60;;;20.20;50.70;;;;;;5133170;28;20047;-10
2022/10/16 00:41:18;;;;;;;1.70;1.60;;;20.20;50.70;;;;;;5133489;28;20051;-10
2022/10/16 00:43:45;;;;;;;1.75;1.40;;;20.20;50.70;;;;;;5133107;28;20062;-10
2022/10/16 00:46:16;;;;;;;1.58;1.48;;;20.20;50.80;;;;;;5133505;28;20055;-10
2022/10/16 00:49:03;;;;;;;1.50;1.40;;;20.20;50.80;;;;;;5133550;28;20047;-10
2022/10/16 00:51:42;;;;;;;1.70;1.60;;;20.20;50.80;;;;;;5133288;28;20069;-10
2022/10/16 00:54:17;;;;;;;1.75;1.58;;;20.20;50.70;;;;;;5133400;28;20432;-10
2022/10/16 00:56:44;;;;;;;1.50;1.40;;;20.20;50.70;;;;;;5133261;28;20053;-10
2022/10/16 00:59:26;;;;;;;1.50;1.35;;;20.20;50.60;;;;;;5132849;28;20479;-11
2022/10/16 01:01:53;;;;;;;1.90;1.80;;;20.20;50.70;;;;;;5132930;28;20081;-10
2022/10/16 01:04:21;;;;;;;2.08;1.70;;;20.20;50.70;;;;;;5132758;28;20086;-10
2022/10/16 01:06:59;;;;;;;1.70;1.60;;;20.20;50.70;;;;;;5133012;28;20062;-10
2022/10/16 01:09:30;;;;;;;2.00;1.85;;;20.20;50.70;;;;;;5135065;27;20051;-10
2022/10/16 01:12:23;;;;;;;1.85;1.75;;;20.20;50.70;;;;;;5135968;28;20058;-10
2022/10/16 01:15:01;;;;;;;1.60;1.50;;;20.20;50.70;;;;;;5136409;28;20449;-10
2022/10/16 01:18:08;;;;;;;1.58;1.48;;;20.20;50.70;;;;;;5135940;28;20456;-10
2022/10/16 01:21:01;;;;;;;1.77;1.67;;;20.20;50.80;;;;;;5136006;28;20051;-10
2022/10/16 01:23:44;;;;;;;1.58;1.48;;;20.20;50.80;;;;;;5136309;28;20058;-10
2022/10/16 01:26:19;;;;;;;1.70;1.60;;;20.20;50.80;;;;;;5136333;28;20411;-10
2022/10/16 01:28:57;;;;;;;1.60;1.50;;;20.20;50.80;;;;;;5136036;28;20078;-10
2022/10/16 01:31:26;;;;;;;1.42;1.33;;;20.20;50.80;;;;;;5136406;28;20051;-10
2022/10/16 01:34:16;;;;;;;1.63;1.50;;;20.20;50.90;;;;;;5135896;28;20076;-10
2022/10/16 01:36:52;;;;;;;1.88;1.70;;;20.20;50.90;;;;;;5135663;28;20489;-11
2022/10/16 01:39:22;;;;;;;1.80;1.70;;;20.10;50.90;;;;;;5135869;28;20051;-10
2022/10/16 01:42:22;;;;;;;1.60;1.50;;;20.10;50.90;;;;;;5136291;28;20059;-10
2022/10/16 01:44:52;;;;;;;1.70;1.60;;;20.10;51.00;;;;;;5120271;28;20079;-10
2022/10/16 01:47:23;;;;;;;1.70;1.60;;;20.10;51.00;;;;;;5135946;28;20043;-11
2022/10/16 01:49:50;;;;;;;1.58;1.48;;;20.10;50.90;;;;;;5135497;28;20047;-10
2022/10/16 01:52:21;;;;;;;1.35;1.25;;;20.10;50.90;;;;;;5135941;28;20058;-10
2022/10/16 01:54:49;;;;;;;1.60;1.50;;;20.20;50.90;;;;;;5135632;28;20051;-10
2022/10/16 01:57:16;;;;;;;1.50;1.40;;;20.20;50.90;;;;;;5135381;28;20483;-10
2022/10/16 01:59:47;;;;;;;1.80;1.70;;;20.20;50.90;;;;;;5135399;28;20047;-10
2022/10/16 02:02:14;;;;;;;1.70;1.60;;;20.20;51.00;;;;;;5135626;28;20448;-10
2022/10/16 02:04:47;;;;;;;1.63;1.50;;;20.20;50.90;;;;;;5135298;28;20399;-10
2022/10/16 02:07:13;;;;;;;1.60;1.50;;;20.20;50.90;;;;;;5135106;28;20138;-10
2022/10/16 02:09:39;;;;;;;1.80;1.70;;;20.10;50.90;;;;;;5135160;28;20043;-10
2022/10/16 02:12:27;;;;;;;2.40;1.80;;;20.20;50.90;;;;;;5135142;28;20055;-10
2022/10/16 02:14:54;;;;;;;1.73;1.63;;;20.20;50.90;;;;;;5135310;28;20047;-10
2022/10/16 02:17:24;;;;;;;1.67;1.58;;;20.20;51.40;;;;;;5135050;28;20055;-11
2022/10/16 02:19:54;;;;;;;2.20;1.88;;;20.20;51.00;;;;;;5134961;27;20051;-10
2022/10/16 02:22:33;;;;;;;1.70;1.60;;;20.10;50.90;;;;;;5135119;28;20054;-11
2022/10/16 02:25:17;;;;;;;1.67;1.40;;;20.20;51.00;;;;;;5135062;28;20490;-10
2022/10/16 02:27:56;;;;;;;1.70;1.60;;;20.10;51.00;;;;;;5134997;28;20075;-11
2022/10/16 02:30:48;;;;;;;1.70;1.60;;;20.10;51.00;;;;;;5134059;28;20452;-10
2022/10/16 02:33:15;;;;;;;1.60;1.50;;;20.20;51.00;;;;;;5135313;28;20051;-10
2022/10/16 02:35:42;;;;;;;1.70;1.60;;;20.20;50.90;;;;;;5134902;28;20050;-10
2022/10/16 02:38:09;;;;;;;1.42;1.33;;;20.20;51.00;;;;;;5135237;28;20054;-10
2022/10/16 02:40:36;;;;;;;1.70;1.60;;;20.20;51.00;;;;;;5135130;28;20047;-10
2022/10/16 02:43:04;;;;;;;1.80;1.70;;;20.20;51.00;;;;;;5134800;28;20134;-11
2022/10/16 02:45:30;;;;;;;1.50;1.40;;;20.20;51.00;;;;;;5134842;28;20047;-10
2022/10/16 02:47:55;;;;;;;2.40;1.80;;;20.20;51.00;;;;;;5134490;28;20551;-10
2022/10/16 02:50:22;;;;;;;2.95;1.80;;;20.10;51.00;;;;;;5134658;28;20095;-10
2022/10/16 02:52:47;;;;;;;1.60;1.50;;;20.10;51.00;;;;;;5134614;28;20054;-10
2022/10/16 02:55:13;;;;;;;1.70;1.60;;;20.10;51.00;;;;;;5134589;28;20061;-10
2022/10/16 02:57:40;;;;;;;1.73;1.63;;;20.20;51.00;;;;;;5134207;28;20090;-11
2022/10/16 03:00:10;;;;;;;1.70;1.60;;;20.20;51.00;;;;;;5134926;28;20051;-11
2022/10/16 03:02:35;;;;;;;1.50;1.40;;;20.20;51.00;;;;;;5134492;28;20046;-10
2022/10/16 03:05:02;;;;;;;1.50;1.40;;;20.10;51.00;;;;;;5134805;28;20051;-10
2022/10/16 03:07:28;;;;;;;2.85;1.50;;;20.20;51.00;;;;;;5134119;28;20058;-11
2022/10/16 03:09:55;;;;;;;1.63;1.52;;;20.20;51.00;;;;;;5134274;28;20050;-10
2022/10/16 03:12:22;;;;;;;1.50;1.40;;;20.20;51.00;;;;;;5134362;28;20047;-10
2022/10/16 03:14:47;;;;;;;1.83;1.70;;;20.10;51.00;;;;;;5134331;28;20441;-10
2022/10/16 03:17:16;;;;;;;1.65;1.55;;;20.10;51.00;;;;;;5134187;28;20055;-12
2022/10/16 03:19:42;;;;;;;1.60;1.50;;;20.10;51.00;;;;;;5133777;28;20058;-10
2022/10/16 03:22:08;;;;;;;1.58;1.48;;;20.10;51.00;;;;;;5134099;28;20406;-10
2022/10/16 03:24:33;;;;;;;1.40;1.30;;;20.20;51.00;;;;;;5134370;28;20062;-10
2022/10/16 03:27:00;;;;;;;1.70;1.60;;;20.20;51.00;;;;;;5134262;28;20055;-10
2022/10/16 03:29:25;;;;;;;1.38;1.27;;;20.20;51.10;;;;;;5133697;28;20043;-10
2022/10/16 03:31:51;;;;;;;1.40;1.30;;;20.10;51.00;;;;;;5133471;27;20051;-10
2022/10/16 03:34:17;;;;;;;1.52;1.42;;;20.20;51.10;;;;;;5134022;28;20508;-10
2022/10/16 03:36:42;;;;;;;1.80;1.60;;;20.10;51.00;;;;;;5134037;28;20047;-10
2022/10/16 03:39:08;;;;;;;1.42;1.33;;;20.10;51.10;;;;;;5133772;28;20100;-10
2022/10/16 03:41:33;;;;;;;1.67;1.58;;;20.10;51.10;;;;;;5133913;28;20527;-10
2022/10/16 03:43:59;;;;;;;1.55;1.45;;;20.10;51.10;;;;;;5133841;28;20047;-10
2022/10/16 03:46:24;;;;;;;1.73;1.63;;;20.10;51.00;;;;;;5134171;28;20069;-10
2022/10/16 03:48:51;;;;;;;1.50;1.40;;;20.10;51.10;;;;;;5133662;28;20047;-10
2022/10/16 03:51:16;;;;;;;1.75;1.52;;;20.20;51.10;;;;;;5133751;28;20047;-10
2022/10/16 03:53:42;;;;;;;1.52;1.42;;;20.10;51.10;;;;;;5133787;28;20513;-10
2022/10/16 03:56:07;;;;;;;1.67;1.55;;;20.10;51.10;;;;;;5133996;28;20080;-10
2022/10/16 03:58:33;;;;;;;1.60;1.50;;;20.10;51.10;;;;;;5134233;28;20047;-10
2022/10/16 04:00:58;;;;;;;1.98;1.65;;;20.10;51.20;;;;;;5133985;28;20051;-10
2022/10/16 04:03:24;;;;;;;2.00;1.80;;;20.10;51.20;;;;;;5133876;28;20475;-10
2022/10/16 04:05:50;;;;;;;1.67;1.58;;;20.10;51.70;;;;;;5133583;28;20086;-10
2022/10/16 04:08:15;;;;;;;1.60;1.50;;;20.10;51.20;;;;;;5133286;28;20096;-10
2022/10/16 04:10:45;;;;;;;1.60;1.50;;;20.10;51.30;;;;;;5133807;28;20104;-10
2022/10/16 04:13:11;;;;;;;1.38;1.27;;;20.10;51.30;;;;;;5133437;28;20043;-10
2022/10/16 04:15:37;;;;;;;1.60;1.42;;;20.10;51.30;;;;;;5133539;28;20486;-10
2022/10/16 04:18:03;;;;;;;1.50;1.40;;;20.10;51.20;;;;;;5133626;28;20051;-10
2022/10/16 04:20:29;;;;;;;1.38;1.27;;;20.10;51.20;;;;;;5133371;28;20100;-10
2022/10/16 04:22:55;;;;;;;1.40;1.30;;;20.10;51.10;;;;;;5133201;28;20151;-10
2022/10/16 04:25:21;;;;;;;1.40;1.30;;;20.10;51.20;;;;;;5133818;28;20088;-10
2022/10/16 04:27:47;;;;;;;1.35;1.25;;;20.10;51.30;;;;;;5133317;28;20055;-10
2022/10/16 04:30:13;;;;;;;1.65;1.55;;;20.10;51.20;;;;;;5133084;28;20142;-10
2022/10/16 04:32:38;;;;;;;1.40;1.30;;;20.10;51.10;;;;;;5133228;28;20050;-10
2022/10/16 04:35:06;;;;;;;1.60;1.50;;;20.10;51.20;;;;;;5133805;28;20471;-10
2022/10/16 04:37:32;;;;;;;1.52;1.42;;;20.10;51.20;;;;;;5133379;28;20537;-10
2022/10/16 04:39:58;;;;;;;1.75;1.60;;;20.10;51.30;;;;;;5133111;28;20051;-10
2022/10/16 04:42:25;;;;;;;2.08;1.88;;;20.10;51.30;;;;;;5133136;27;20141;-10
2022/10/16 04:44:52;;;;;;;1.40;1.30;;;20.10;51.30;;;;;;5135948;28;20482;-10
2022/10/16 04:47:18;;;;;;;1.23;1.13;;;20.10;51.30;;;;;;5136638;28;20141;-10
2022/10/16 04:49:43;;;;;;;1.70;1.52;;;20.10;51.30;;;;;;5136440;28;20543;-10
2022/10/16 04:52:09;;;;;;;1.70;1.60;;;20.10;51.40;;;;;;5136569;28;20483;-10
2022/10/16 04:54:35;;;;;;;1.67;1.58;;;20.00;51.50;;;;;;5136747;28;20047;-10
2022/10/16 04:57:00;;;;;;;1.60;1.50;;;20.00;52.00;;;;;;5136946;28;20399;-10
2022/10/16 04:59:26;;;;;;;1.42;1.30;;;20.00;51.40;;;;;;5136247;28;20074;-10
2022/10/16 05:01:51;;;;;;;1.48;1.38;;;20.00;51.40;;;;;;5116397;28;20112;-10
2022/10/16 05:04:17;;;;;;;1.45;1.35;;;20.00;51.40;;;;;;5136409;28;20082;-11
2022/10/16 05:06:43;;;;;;;1.60;1.50;;;20.10;51.40;;;;;;5136390;28;20055;-10
2022/10/16 05:09:09;;;;;;;1.60;1.50;;;20.10;51.40;;;;;;5136268;28;20054;-10
2022/10/16 05:11:34;;;;;;;1.40;1.30;;;20.10;51.40;;;;;;5136309;28;20071;-10
2022/10/16 05:14:01;;;;;;;1.60;1.50;;;20.10;51.50;;;;;;5136145;28;20058;-11
2022/10/16 05:16:27;;;;;;;1.40;1.30;;;20.00;51.50;;;;;;5136159;28;20506;-10
2022/10/16 05:18:53;;;;;;;1.35;1.25;;;20.00;51.40;;;;;;5136119;28;20035;-10
2022/10/16 05:21:19;;;;;;;1.75;1.50;;;20.00;51.40;;;;;;5136091;28;20062;-10
2022/10/16 05:23:44;;;;;;;1.60;1.50;;;20.00;51.50;;;;;;5136378;28;20051;-10
2022/10/16 05:26:10;;;;;;;1.83;1.33;;;20.00;51.50;;;;;;5136110;28;20487;-10
2022/10/16 05:28:36;;;;;;;1.25;1.15;;;20.00;51.50;;;;;;5135894;28;20082;-10
2022/10/16 05:31:08;;;;;;;1.58;1.48;;;20.00;51.40;;;;;;5135989;28;20142;-10
2022/10/16 05:33:35;;;;;;;1.38;1.27;;;20.10;51.40;;;;;;5136014;28;20491;-10
2022/10/16 05:36:07;;;;;;;1.73;1.63;;;20.10;51.40;;;;;;5135893;28;20107;-10
2022/10/16 05:38:33;;;;;;;2.28;1.30;;;20.10;51.40;;;;;;5135999;28;20062;-10
2022/10/16 05:40:58;;;;;;;1.60;1.50;;;20.10;51.30;;;;;;5117383;28;20066;-10
2022/10/16 05:43:24;;;;;;;1.40;1.30;;;20.10;51.30;;;;;;5136061;28;20043;-10
2022/10/16 05:45:57;;;;;;;1.45;1.33;;;20.20;51.30;;;;;;5135659;28;20047;-10
2022/10/16 05:48:24;;;;;;;1.42;1.33;;;20.10;51.40;;;;;;5135630;28;20040;-10
2022/10/16 05:50:57;;;;;;;1.30;1.20;;;20.10;51.30;;;;;;5135522;28;20096;-10
2022/10/16 05:53:25;;;;;;;1.00;1.00;;;20.10;51.30;;;;;;5135918;28;20089;-10
2022/10/16 05:55:57;;;;;;;1.30;1.20;;;20.10;51.40;;;;;;5135085;27;20563;-10
2022/10/16 05:58:23;;;;;;;1.63;1.45;;;20.10;51.40;;;;;;5135830;28;20137;-10
2022/10/16 06:01:00;;;;;;;1.45;1.30;;;20.00;51.40;;;;;;5135276;28;20146;-10
2022/10/16 06:03:26;;;;;;;1.50;1.40;;;20.10;51.40;;;;;;5135368;28;20047;-10
2022/10/16 06:05:52;;;;;;;1.60;1.50;;;20.10;51.40;;;;;;5116172;28;20544;-10
2022/10/16 06:08:19;;;;;;;1.40;1.30;;;20.10;51.40;;;;;;5135639;28;20089;-10
2022/10/16 06:10:45;;;;;;;1.20;1.10;;;20.10;51.40;;;;;;5135233;28;20398;-10
2022/10/16 06:13:12;;;;;;;1.60;1.50;;;20.10;51.40;;;;;;5135198;28;20055;-10
2022/10/16 06:15:38;;;;;;;1.08;1.02;;;20.10;51.40;;;;;;5135279;28;20076;-10
2022/10/16 06:18:05;;;;;;;1.63;1.33;;;20.10;51.40;;;;;;5135164;28;20103;-10
2022/10/16 06:20:31;;;;;;;1.40;1.20;;;20.10;51.40;;;;;;5135215;28;20047;-10
2022/10/16 06:22:57;;;;;;;1.40;1.30;;;20.10;51.40;;;;;;5135483;28;20099;-10
2022/10/16 06:25:22;;;;;;;1.25;1.17;;;20.10;51.40;;;;;;5135427;28;20505;-10
2022/10/16 06:27:48;;;;;;;1.35;1.25;;;20.10;51.40;;;;;;5134963;28;20047;-10
2022/10/16 06:30:14;;;;;;;1.40;1.30;;;20.10;51.50;;;;;;5134820;28;20051;-10
2022/10/16 06:32:39;;;;;;;1.35;1.27;;;20.00;51.50;;;;;;5135280;28;20143;-10
2022/10/16 06:35:06;;;;;;;1.40;1.30;;;20.00;51.50;;;;;;5134989;28;20053;-10
2022/10/16 06:37:32;;;;;;;1.60;1.48;;;20.00;51.50;;;;;;5135251;28;20167;-10
2022/10/16 06:39:57;;;;;;;1.30;1.20;;;20.10;51.50;;;;;;5134665;28;20083;-10
2022/10/16 06:42:23;;;;;;;1.50;1.40;;;20.10;51.40;;;;;;5135307;28;20055;-10
2022/10/16 06:44:50;;;;;;;1.58;1.48;;;20.10;51.40;;;;;;5135329;28;20078;-10
2022/10/16 06:47:15;;;;;;;1.55;1.20;;;20.10;51.20;;;;;;5134415;28;20090;-10
2022/10/16 06:49:41;;;;;;;1.58;1.48;;;20.10;51.20;;;;;;5134284;28;20130;-10
2022/10/16 06:52:06;;;;;;;1.58;1.40;;;20.10;51.20;;;;;;5134556;28;20487;-10
2022/10/16 06:54:32;;;;;;;1.50;1.40;;;20.20;51.10;;;;;;5134951;28;20360;-10
2022/10/16 06:56:59;;;;;;;1.50;1.40;;;20.30;50.90;;;;;;5134483;28;20043;-10
2022/10/16 06:59:25;;;;;;;1.50;1.40;;;20.40;50.60;;;;;;5134470;28;20513;-11
2022/10/16 07:01:51;;;;;;;1.25;1.15;;;20.50;50.50;;;;;;5134341;28;20108;-10
2022/10/16 07:04:16;;;;;;;1.30;1.20;;;20.60;50.30;;;;;;5134475;28;20051;-10
2022/10/16 07:06:42;;;;;;;1.63;1.52;;;20.70;50.20;;;;;;5133868;27;20047;-10
2022/10/16 07:09:10;;;;;;;1.40;1.30;;;20.80;50.00;;;;;;5134287;28;20542;-10
2022/10/16 07:11:37;;;;;;;1.85;1.52;;;20.90;49.80;;;;;;5134278;28;20395;-10
2022/10/16 07:14:04;;;;;;;1.45;1.35;;;20.90;49.60;;;;;;5134333;28;20051;-10
2022/10/16 07:16:32;;;;;;;1.05;1.05;;;21.00;49.40;;;;;;5134368;28;20047;-10
2022/10/16 07:19:00;;;;;;;1.52;1.40;;;21.10;49.20;;;;;;5134110;28;20384;-10
2022/10/16 07:21:35;;;;;;;1.10;1.00;;;21.10;49.10;;;;;;5134075;28;20414;-10
2022/10/16 07:24:03;;;;;;;1.55;1.45;;;21.10;49.10;;;;;;5134221;28;20514;-10
2022/10/16 07:26:30;;;;;;;1.30;1.20;;;21.10;49.10;;;;;;5134543;28;20051;-10
2022/10/16 07:28:57;;;;;;;1.20;1.10;;;21.10;49.20;;;;;;5133995;28;20043;-10
2022/10/16 07:31:23;;;;;;;1.40;1.30;;;21.00;49.20;;;;;;5133974;28;20051;-10
2022/10/16 07:33:49;;;;;;;1.63;1.52;;;20.90;49.30;;;;;;5134321;28;20127;-10
2022/10/16 07:36:17;;;;;;;1.25;1.20;;;20.90;49.50;;;;;;5134159;28;20463;-10
2022/10/16 07:38:44;;;;;;;1.30;1.20;;;20.90;49.70;;;;;;5134227;28;20050;-10
2022/10/16 07:41:12;;;;;;;1.50;1.40;;;20.80;49.60;;;;;;5133911;28;20039;-10
2022/10/16 07:43:38;;;;;;;1.17;1.10;;;20.80;49.80;;;;;;5133836;28;20059;-10
2022/10/16 07:46:03;;;;;;;1.35;1.25;;;20.80;49.80;;;;;;5133852;28;20126;-10
2022/10/16 07:48:32;;;;;;;1.30;1.20;;;20.80;49.80;;;;;;5133661;28;20082;-10
2022/10/16 07:50:59;;;;;;;1.27;1.17;;;20.80;49.90;;;;;;5133678;28;20487;-11
2022/10/16 07:53:25;;;;;;;1.40;1.30;;;20.80;49.70;;;;;;5134084;28;20108;-10
2022/10/16 07:56:06;;;;;;;1.27;1.10;;;20.90;49.60;;;;;;5133703;28;20046;-10
2022/10/16 07:58:33;;;;;;;;;;;20.90;49.60;;;;;;5134120;28;20042;-10
2022/10/16 08:00:59;;;;;;;1.25;1.15;;;20.90;49.60;;;;;;5133982;28;19966;-10
2022/10/16 08:03:25;;;;;;;1.38;1.27;;;20.90;49.50;;;;;;5133921;28;20055;-10
2022/10/16 08:05:51;;;;;;;1.60;1.20;;;20.80;49.70;;;;;;5133775;28;20589;-10
2022/10/16 08:08:18;;;;;;;1.55;1.45;;;20.80;49.80;;;;;;5133447;28;20146;-10
2022/10/16 08:10:44;;;;;;;1.38;1.23;;;20.70;49.90;;;;;;5115596;28;20451;-10
2022/10/16 08:13:09;;;;;;;1.30;1.20;;;20.60;50.00;;;;;;5133527;28;20043;-10
2022/10/16 08:15:35;;;;;;;0.95;0.95;;;20.60;50.10;;;;;;5133629;28;20047;-10
2022/10/16 08:18:03;;;;;;;1.33;1.23;;;20.60;50.10;;;;;;5135773;27;20054;-10
2022/10/16 08:20:30;;;;;;;1.15;1.05;;;20.60;50.20;;;;;;5137619;28;20047;-10
2022/10/16 08:22:56;;;;;;;1.42;1.30;;;20.60;50.20;;;;;;5136956;28;20043;-10
2022/10/16 08:25:23;;;;;;;1.40;1.30;;;20.60;50.20;;;;;;5137413;28;20058;-10
2022/10/16 08:27:49;;;;;;;1.20;1.10;;;20.50;50.30;;;;;;5137626;28;20104;-10
2022/10/16 08:30:15;;;;;;;1.33;1.23;;;20.50;50.30;;;;;;5136739;28;20051;-10
2022/10/16 08:32:41;;;;;;;1.45;1.33;;;20.50;50.30;;;;;;5118417;28;20047;-10
2022/10/16 08:35:12;;;;;;;1.27;1.17;;;20.50;50.30;;;;;;5137231;28;20614;-11
2022/10/16 08:37:38;;;;;;;1.10;0.95;;;20.50;50.40;;;;;;5136889;28;20058;-10
2022/10/16 08:40:07;;;;;;;1.70;1.40;;;20.50;50.30;;;;;;5136731;28;20100;-11
2022/10/16 08:42:52;;;;;;;1.40;1.30;;;20.60;50.20;;;;;;5136739;28;20047;-11
2022/10/16 08:45:20;;;;;;;1.38;1.27;;;20.60;50.20;;;;;;5137033;28;20138;-11
2022/10/16 08:48:04;;;;;;;1.13;1.02;;;20.60;50.10;;;;;;5136628;28;20050;-11
2022/10/16 08:50:32;;;;;;;1.20;1.10;;;20.60;50.10;;;;;;5136624;28;20064;-11
2022/10/16 08:52:58;;;;;;;1.73;1.40;;;20.70;50.00;;;;;;5136575;28;20540;-11
2022/10/16 08:55:30;;;;;;;1.17;1.13;;;20.70;50.00;;;;;;5136575;28;20498;-11
2022/10/16 08:57:56;;;;;;;1.30;1.20;;;20.70;50.00;;;;;;5136858;28;20043;-11
2022/10/16 09:00:21;;;;;;;1.20;1.02;;;20.70;50.00;;;;;;5136441;28;20050;-11
2022/10/16 09:03:03;;;;;;;1.20;1.10;;;20.70;50.00;;;;;;5136777;28;20059;-11
2022/10/16 09:05:49;;;;;;;1.00;1.00;;;20.70;50.00;;;;;;5136290;28;20047;-11
2022/10/16 09:08:33;;;;;;;1.20;1.10;;;20.60;50.10;;;;;;5136176;28;20050;-11
2022/10/16 09:11:39;;;;;;;1.05;1.05;;;20.60;50.00;;;;;;5136258;28;20055;-11
2022/10/16 09:14:29;;;;;;;1.40;1.30;;;20.70;50.00;;;;;;5091516;28;20108;-11
2022/10/16 09:17:03;;;;;;;1.00;1.00;;;20.70;49.90;;;;;;5136069;28;20050;-11
2022/10/16 09:19:37;;;;;;;1.10;1.10;;;20.70;49.90;;;;;;5136233;28;20047;-11
2022/10/16 09:22:14;;;;;;;1.30;1.20;;;20.70;49.90;;;;;;5136525;28;20059;-11
2022/10/16 09:24:39;;;;;;;1.30;1.20;;;20.70;49.90;;;;;;5136684;28;20065;-11
2022/10/16 09:27:07;;;;;;;1.15;1.05;;;20.70;50.00;;;;;;5136508;28;20059;-11
2022/10/16 09:29:33;;;;;;;1.25;1.15;;;20.70;49.90;;;;;;5135124;27;20480;-11
2022/10/16 09:32:12;;;;;;;1.23;1.13;;;20.70;50.00;;;;;;5135857;28;20051;-11
2022/10/16 09:34:43;;;;;;;1.20;1.10;;;20.70;49.90;;;;;;5136204;28;20525;-11
2022/10/16 09:37:12;;;;;;;1.30;1.20;;;20.70;49.90;;;;;;5136090;28;20432;-11
2022/10/16 09:39:53;;;;;;;1.88;1.40;;;20.70;49.90;;;;;;5135817;28;20088;-11
2022/10/16 09:42:24;;;;;;;1.23;1.13;;;20.70;50.00;;;;;;5136185;28;20505;-11
2022/10/16 09:44:53;;;;;;;1.20;1.15;;;20.70;50.00;;;;;;5135775;28;20051;-11
2022/10/16 09:47:24;;;;;;;1.27;1.17;;;20.70;50.00;;;;;;5135585;28;20055;-11
2022/10/16 09:50:21;;;;;;;1.30;1.20;;;20.70;50.00;;;;;;5136062;28;20093;-11
2022/10/16 09:52:47;;;;;;;1.20;1.10;;;20.70;50.00;;;;;;5135642;28;20401;-11
2022/10/16 09:55:17;;;;;;;1.00;1.00;;;20.70;49.90;;;;;;5136196;28;20108;-11
2022/10/16 09:57:53;;;;;;;1.30;1.20;;;20.70;50.00;;;;;;5135395;28;20083;-11
2022/10/16 10:00:21;;;;;;;1.02;1.00;;;20.70;50.00;;;;;;5135856;28;20035;-11
2022/10/16 10:02:47;;;;;;;1.58;1.30;;;20.70;50.00;;;;;;5135477;28;20099;-11
2022/10/16 10:05:25;;;;;;;0.90;0.90;;;20.70;50.20;;;;;;5135777;28;20059;-11
2022/10/16 10:08:05;;;;;;;1.33;1.23;;;20.70;50.00;;;;;;5135437;28;20398;-11
2022/10/16 10:10:42;;;;;;;1.00;1.00;;;20.70;50.00;;;;;;5135817;28;20051;-11
2022/10/16 10:13:20;;;;;;;1.35;1.25;;;20.70;49.90;;;;;;5135326;28;20043;-11
2022/10/16 10:15:45;;;;;;;1.30;1.20;;;20.70;49.90;;;;;;5135349;28;20039;-11
2022/10/16 10:18:22;;;;;;;1.38;1.27;;;20.70;49.90;;;;;;5135805;28;20058;-11
2022/10/16 10:20:59;;;;;;;1.10;1.00;;;20.70;49.90;;;;;;5135129;28;20051;-11
2022/10/16 10:23:27;;;;;;;0.90;0.90;;;20.70;49.90;;;;;;5135674;28;20067;-11
2022/10/16 10:26:10;;;;;;;1.40;1.30;;;20.70;49.90;;;;;;5135247;28;20091;-11
2022/10/16 10:28:53;;;;;;;0.93;0.93;;;20.70;49.90;;;;;;5135130;28;20467;-11
2022/10/16 10:31:50;;;;;;;1.00;1.00;;;20.70;49.90;;;;;;5134815;28;20054;-11
2022/10/16 10:34:56;;;;;;;1.30;1.20;;;20.70;49.90;;;;;;5061619;28;20092;-11
2022/10/16 10:37:37;;;;;;;1.20;1.10;;;20.70;49.80;;;;;;5134901;28;20047;-11
2022/10/16 10:40:37;;;;;;;1.50;1.40;;;20.70;49.90;;;;;;5134998;27;20103;-11
2022/10/16 10:43:21;;;;;;;1.10;1.05;;;20.80;49.90;;;;;;5134446;28;20487;-11
2022/10/16 10:45:50;;;;;;;0.90;0.90;;;20.70;49.90;;;;;;5135072;28;20063;-11
2022/10/16 10:48:45;;;;;;;1.20;1.10;;;20.70;49.80;;;;;;5135115;28;20051;-11
2022/10/16 10:51:29;;;;;;;1.25;1.10;;;20.80;49.90;;;;;;5135232;28;20129;-11
2022/10/16 10:54:13;;;;;;;1.30;1.20;;;20.80;49.80;;;;;;5134675;28;20547;-11
2022/10/16 10:56:52;;;;;;;1.30;1.20;;;20.80;49.80;;;;;;5134738;28;20077;-11
2022/10/16 10:59:39;;;;;;;1.40;1.30;;;20.80;49.80;;;;;;5134445;28;20403;-11
2022/10/16 11:02:21;;;;;;;1.20;1.10;;;20.80;49.80;;;;;;5134550;28;20100;-11
2022/10/16 11:05:05;;;;;;;1.02;1.02;;;20.80;49.80;;;;;;5134782;28;20483;-11
2022/10/16 11:07:38;;;;;;;1.08;0.95;;;20.80;49.80;;;;;;5134397;28;20094;-11
2022/10/16 11:10:15;;;;;;;1.23;1.15;;;20.80;49.80;;;;;;5134717;28;20062;-11
2022/10/16 11:12:46;;;;;;;1.20;1.10;;;20.80;49.80;;;;;;5134398;28;20054;-11
2022/10/16 11:15:30;;;;;;;1.27;1.17;;;20.80;49.80;;;;;;5134771;28;20418;-11
2022/10/16 11:18:08;;;;;;;1.20;1.10;;;20.80;49.80;;;;;;5115611;28;20517;-11
2022/10/16 11:20:42;;;;;;;1.00;1.00;;;20.80;49.90;;;;;;5134582;28;20431;-11
2022/10/16 11:23:21;;;;;;;1.30;1.20;;;20.80;49.80;;;;;;5134602;28;20062;-11
2022/10/16 11:25:48;;;;;;;1.55;1.20;;;20.80;49.90;;;;;;5134450;28;20051;-11
2022/10/16 11:28:23;;;;;;;1.23;1.13;;;20.80;49.90;;;;;;5134101;28;20088;-11
2022/10/16 11:31:00;;;;;;;1.23;1.10;;;20.80;49.80;;;;;;5134281;28;20054;-11
2022/10/16 11:33:41;;;;;;;1.35;1.13;;;20.80;49.80;;;;;;5134061;28;20153;-11
2022/10/16 11:36:18;;;;;;;0.98;0.98;;;20.80;49.80;;;;;;5134351;28;20051;-11
2022/10/16 11:39:08;;;;;;;1.20;1.10;;;20.80;49.80;;;;;;5133888;28;20047;-11
2022/10/16 11:41:54;;;;;;;1.13;1.02;;;20.80;49.70;;;;;;5133967;28;20051;-11
2022/10/16 11:44:41;;;;;;;1.02;1.00;;;20.90;49.70;;;;;;5133984;28;20062;-11
2022/10/16 11:47:33;;;;;;;1.17;1.08;;;20.90;49.70;;;;;;5134232;28;20145;-11
2022/10/16 11:50:17;;;;;;;1.08;1.08;;;20.90;49.70;;;;;;5133723;28;20057;-11
2022/10/16 11:52:51;;;;;;;1.15;1.05;;;20.90;49.70;;;;;;5133272;27;20055;-11
2022/10/16 11:55:20;;;;;;;1.00;1.00;;;20.90;49.70;;;;;;5133812;28;20418;-11
2022/10/16 11:57:57;;;;;;;1.20;1.10;;;20.80;50.10;;;;;;5133671;28;20407;-11
2022/10/16 12:00:28;;;;;;;1.00;1.00;;;20.90;49.70;;;;;;5134031;28;20047;-11
2022/10/16 12:03:17;;;;;;;1.02;0.90;;;20.90;49.70;;;;;;5134005;28;20050;-11
2022/10/16 12:06:10;;;;;;;1.30;1.20;;;20.90;49.70;;;;;;5133539;28;20073;-11
2022/10/16 12:08:36;;;;;;;0.88;0.88;;;20.80;49.70;;;;;;5133524;28;20403;-11
2022/10/16 12:11:27;;;;;;;1.15;1.10;;;20.90;49.80;;;;;;5133484;28;20051;-11
2022/10/16 12:14:13;;;;;;;1.13;1.05;;;20.80;49.80;;;;;;5133552;28;20072;-11
2022/10/16 12:16:52;;;;;;;1.00;0.98;;;20.90;49.80;;;;;;5089928;28;20047;-11
2022/10/16 12:19:19;;;;;;;1.17;1.08;;;20.90;49.80;;;;;;5133227;28;20047;-11
2022/10/16 12:21:46;;;;;;;1.00;1.00;;;20.90;49.70;;;;;;5133943;28;20109;-11
2022/10/16 12:24:31;;;;;;;1.02;1.00;;;20.90;49.70;;;;;;5133340;28;20128;-11
2022/10/16 12:26:57;;;;;;;1.27;1.10;;;20.90;49.70;;;;;;5133334;28;20546;-11
2022/10/16 12:29:39;;;;;;;1.13;1.02;;;20.80;49.70;;;;;;5132970;28;20134;-11
2022/10/16 12:32:25;;;;;;;1.20;1.13;;;20.90;49.70;;;;;;5133468;28;20055;-11
2022/10/16 12:34:51;;;;;;;0.90;0.90;;;20.90;49.70;;;;;;5133555;28;20047;-11
2022/10/16 12:37:35;;;;;;;0.90;0.90;;;20.90;49.70;;;;;;5133348;28;20470;-11
2022/10/16 12:40:14;;;;;;;1.15;1.05;;;20.80;49.70;;;;;;5133153;28;20055;-11
2022/10/16 12:42:40;;;;;;;0.95;0.85;;;20.90;49.80;;;;;;5133544;28;20508;-12
2022/10/16 12:45:41;;;;;;;1.15;0.98;;;20.90;49.80;;;;;;5133108;28;20116;-11
2022/10/16 12:48:21;;;;;;;1.10;1.00;;;20.90;49.80;;;;;;5049503;28;20045;-11
2022/10/16 12:50:46;;;;;;;1.20;1.10;;;20.90;49.80;;;;;;5123117;28;20047;-11
2022/10/16 12:53:21;;;;;;;1.35;1.10;;;20.90;49.70;;;;;;5132976;28;20547;-11
2022/10/16 12:55:54;;;;;;;1.00;1.00;;;20.90;49.70;;;;;;5132947;28;20051;-11
2022/10/16 12:58:20;;;;;;;1.20;1.10;;;20.90;49.80;;;;;;5132901;28;20074;-11
2022/10/16 13:00:58;;;;;;;1.15;1.05;;;20.90;49.80;;;;;;5132874;28;20044;-11
2022/10/16 13:03:56;;;;;;;0.93;0.93;;;20.80;49.80;;;;;;5132798;27;20082;-11
2022/10/16 13:06:52;;;;;;;1.25;1.08;;;20.90;49.80;;;;;;5136223;28;20051;-12
2022/10/16 13:09:44;;;;;;;0.93;0.93;;;20.90;49.80;;;;;;5136284;28;20399;-11
2022/10/16 13:12:44;;;;;;;0.98;0.98;;;20.90;49.90;;;;;;5130836;28;20051;-11